createdAt,value
2018-01-31T01:52:57.325Z,53.9
2018-01-31T02:01:32.449Z,50.0
2018-01-31T02:11:32.307Z,45.5
2018-01-31T02:21:28.944Z,48.9
2018-01-31T02:31:26.179Z,47.1
2018-01-31T02:41:28.095Z,55.4
2018-01-31T02:51:32.599Z,47.5
2018-01-31T03:01:27.095Z,53.0
2018-01-31T03:11:31.762Z,49.1
2018-01-31T03:21:27.664Z,42.3
2018-01-31T03:31:32.371Z,43.8
2018-01-31T03:41:31.995Z,47.0
2018-01-31T03:51:29.911Z,56.5
2018-01-31T04:01:26.970Z,51.7
2018-01-31T04:11:27.014Z,42.9
2018-01-31T04:21:29.443Z,44.7
2018-01-31T04:31:28.693Z,46.9
2018-01-31T04:41:29.293Z,50.3
2018-01-31T04:51:28.606Z,46.9
2018-01-31T05:01:26.721Z,45.5
2018-01-31T05:11:27.488Z,51.9
2018-01-31T05:21:29.317Z,48.9
2018-01-31T05:31:28.922Z,49.2
2018-01-31T05:41:26.978Z,52.5
2018-01-31T05:51:29.218Z,47.3
2018-01-31T06:01:27.797Z,55.7
2018-01-31T06:11:27.849Z,49.5
2018-01-31T06:21:26.278Z,50.2
2018-01-31T06:31:29.862Z,52.1
2018-01-31T06:41:27.583Z,51.2
2018-01-31T06:51:26.913Z,51.1
2018-01-31T07:01:28.512Z,53.4
2018-01-31T07:11:26.701Z,42.5
2018-01-31T07:21:28.783Z,48.6
2018-01-31T07:31:32.456Z,48.0
2018-01-31T07:41:32.109Z,44.6
2018-01-31T07:51:27.349Z,40.6
2018-01-31T08:01:27.794Z,42.9
2018-01-31T08:11:28.441Z,39.8
2018-01-31T08:21:29.286Z,34.1
2018-01-31T08:31:32.585Z,44.5
2018-01-31T08:41:33.088Z,30.0
2018-01-31T08:51:33.180Z,35.7
2018-01-31T09:01:31.786Z,37.7
2018-01-31T09:21:26.317Z,25.6
2018-01-31T09:31:26.366Z,31.2
2018-01-31T09:41:26.441Z,22.1
2018-01-31T09:51:28.177Z,36.6
2018-01-31T10:01:32.366Z,47.8
2018-01-31T10:11:26.436Z,23.7
2018-01-31T10:21:26.705Z,21.0
2018-01-31T10:31:26.860Z,12.4
2018-01-31T10:41:27.166Z,15.3
2018-01-31T10:51:26.908Z,10.4
2018-01-31T11:01:27.186Z,15.5
2018-01-31T11:11:26.254Z,7.6
2018-01-31T11:21:26.891Z,11.4
2018-01-31T11:31:26.542Z,8.2
2018-01-31T11:41:26.919Z,8.7
2018-01-31T11:51:27.068Z,6.1
2018-01-31T12:01:27.348Z,6.1
2018-01-31T12:11:27.670Z,4.8
2018-01-31T12:21:26.461Z,3.9
2018-01-31T13:01:55.327Z,6.1
2018-01-31T13:11:26.535Z,5.0
2018-01-31T13:21:29.073Z,5.9
2018-01-31T13:31:27.269Z,5.0
2018-01-31T13:41:26.426Z,12.9
2018-01-31T13:51:27.953Z,5.5
2018-01-31T14:01:26.065Z,7.4
2018-01-31T14:11:26.732Z,7.5
2018-01-31T14:21:26.144Z,7.6
2018-01-31T14:31:27.408Z,9.2
2018-01-31T14:41:27.626Z,7.5
2018-01-31T14:51:27.123Z,11.5
2018-01-31T15:01:28.849Z,13.3
2018-01-31T15:11:25.969Z,10.0
2018-01-31T15:21:28.529Z,13.5
2018-01-31T15:31:26.636Z,33.8
2018-01-31T15:41:26.736Z,26.0
2018-01-31T15:51:27.183Z,18.0
2018-01-31T16:01:26.718Z,25.6
2018-01-31T16:11:28.373Z,22.6
2018-01-31T16:21:27.902Z,20.5
2018-01-31T16:31:26.431Z,26.3
2018-01-31T16:41:26.684Z,27.3
2018-01-31T16:51:27.144Z,26.9
2018-01-31T17:01:26.256Z,27.4
2018-01-31T17:11:26.792Z,26.7
2018-01-31T17:21:27.592Z,27.4
2018-01-31T17:31:33.406Z,35.5
2018-01-31T17:41:26.668Z,29.2
2018-01-31T17:51:27.375Z,35.7
2018-01-31T18:01:26.779Z,34.5
2018-01-31T18:11:27.176Z,31.8
2018-01-31T18:21:29.915Z,38.3
2018-01-31T18:31:26.084Z,41.1
2018-01-31T18:41:27.351Z,55.6
2018-01-31T18:51:26.564Z,45.9
2018-01-31T19:01:26.834Z,49.5
2018-01-31T19:11:26.483Z,35.6
2018-01-31T19:21:27.489Z,33.4
2018-01-31T19:31:27.748Z,36.3
2018-01-31T19:41:27.194Z,41.6
2018-01-31T19:51:27.673Z,35.9
2018-01-31T20:01:27.497Z,42.3
2018-01-31T20:11:27.591Z,38.1
2018-01-31T20:21:27.247Z,39.6
2018-01-31T20:31:27.021Z,36.3
2018-01-31T20:41:26.220Z,39.9
2018-01-31T20:51:26.339Z,59.2
2018-01-31T21:01:26.461Z,49.5
2018-01-31T21:11:26.991Z,40.8
2018-01-31T21:21:26.854Z,45.6
2018-01-31T21:31:31.554Z,38.0
2018-01-31T21:41:33.674Z,43.6
2018-01-31T21:51:33.224Z,42.1
2018-01-31T22:01:31.945Z,47.8
2018-01-31T22:11:32.486Z,28.6
2018-01-31T22:21:27.698Z,27.1
2018-01-31T22:31:27.471Z,26.7
2018-01-31T22:41:26.878Z,31.4
2018-01-31T22:51:26.063Z,30.6
2018-01-31T23:01:28.537Z,35.9
2018-01-31T23:11:27.357Z,35.3
2018-01-31T23:21:26.839Z,41.5
2018-01-31T23:31:31.532Z,55.2
